Time;durP1;ratioP1;P1;durP2;ratioP2;P2;SDS_P1;SDS_P2;PMS_P1;PMS_P2;Temp;Humidity;BMP_temperature;BMP_pressure;BME280_temperature;BME280_humidity;BME280_pressure;Samples;Min_cycle;Max_cycle;Signal;HPM_P1;HPM_P2
2021/03/08 00:03:22;;;;;;;8.47;4.90;;;17.30;30.80;;;;;;8385679;28;20166;-54
2021/03/08 00:07:22;;;;;;;7.87;5.37;;;17.20;30.80;;;;;;8390508;28;20474;-55
2021/03/08 00:11:23;;;;;;;8.10;5.90;;;17.30;30.80;;;;;;8413900;28;20079;-54
2021/03/08 00:15:23;;;;;;;8.20;5.40;;;17.20;30.80;;;;;;8418429;28;20055;-55
2021/03/08 00:19:24;;;;;;;7.67;5.33;;;17.20;30.80;;;;;;8408201;28;20040;-55
2021/03/08 00:23:24;;;;;;;8.40;5.40;;;17.20;30.80;;;;;;8384000;28;20036;-56
2021/03/08 00:27:25;;;;;;;6.23;5.00;;;17.20;30.80;;;;;;8389908;28;20090;-55
2021/03/08 00:31:25;;;;;;;7.93;5.13;;;17.20;30.80;;;;;;8385422;28;20470;-55
2021/03/08 00:35:26;;;;;;;7.40;4.57;;;17.30;30.80;;;;;;8383589;28;20045;-55
2021/03/08 00:39:27;;;;;;;7.40;5.27;;;17.20;30.70;;;;;;8385735;28;20553;-55
2021/03/08 00:43:27;;;;;;;10.60;5.63;;;17.20;30.80;;;;;;8388643;28;20064;-55
2021/03/08 00:47:28;;;;;;;8.03;5.10;;;17.20;30.80;;;;;;8383237;28;20504;-56
2021/03/08 00:51:28;;;;;;;7.47;5.47;;;17.20;30.70;;;;;;8385798;28;20044;-55
2021/03/08 00:55:29;;;;;;;7.13;4.90;;;17.20;30.70;;;;;;8385208;28;20575;-56
2021/03/08 00:59:29;;;;;;;9.00;4.93;;;17.20;30.70;;;;;;8387865;28;20114;-55
2021/03/08 01:03:30;;;;;;;6.73;5.07;;;17.20;30.70;;;;;;8385063;28;20131;-55
2021/03/08 01:07:30;;;;;;;7.17;4.97;;;17.20;30.80;;;;;;8405508;28;20086;-55
2021/03/08 01:11:31;;;;;;;7.43;4.83;;;17.20;30.70;;;;;;8404614;28;20049;-55
2021/03/08 01:15:31;;;;;;;7.73;5.00;;;17.20;30.70;;;;;;8385282;28;20036;-55
2021/03/08 01:19:33;;;;;;;7.27;5.50;;;17.20;30.70;;;;;;8389257;28;20037;-55
2021/03/08 01:23:34;;;;;;;7.75;5.30;;;17.20;30.70;;;;;;8382795;28;20109;-55
2021/03/08 01:27:34;;;;;;;6.67;4.67;;;17.20;30.70;;;;;;8384577;28;20025;-55
2021/03/08 01:31:35;;;;;;;8.87;4.77;;;17.20;30.80;;;;;;8384515;28;20354;-54
2021/03/08 01:35:38;;;;;;;6.87;4.70;;;17.20;30.70;;;;;;8387190;28;20044;-55
2021/03/08 01:39:39;;;;;;;6.82;4.80;;;17.20;30.70;;;;;;8384372;28;20040;-55
2021/03/08 01:43:39;;;;;;;6.60;4.73;;;17.20;30.70;;;;;;8382496;28;20406;-55
2021/03/08 01:47:41;;;;;;;7.37;4.97;;;17.20;30.70;;;;;;8384364;28;20047;-55
2021/03/08 01:51:44;;;;;;;6.88;4.70;;;17.20;30.70;;;;;;8388656;28;20063;-55
2021/03/08 01:55:45;;;;;;;6.07;4.45;;;17.20;30.70;;;;;;8422038;28;20036;-55
2021/03/08 01:59:45;;;;;;;5.68;4.47;;;17.20;30.70;;;;;;8399743;28;20473;-55
2021/03/08 02:03:46;;;;;;;6.37;4.80;;;17.20;30.70;;;;;;8389890;28;20032;-55
2021/03/08 02:07:46;;;;;;;7.83;4.40;;;17.20;30.60;;;;;;8388099;28;20040;-55
2021/03/08 02:12:03;;;;;;;6.13;4.70;;;17.10;30.60;;;;;;8394578;28;20067;-55
2021/03/08 02:16:15;;;;;;;7.70;4.85;;;17.20;30.60;;;;;;8389625;28;20044;-55
2021/03/08 02:20:48;;;;;;;8.02;4.53;;;17.10;30.60;;;;;;8387715;28;20043;-55
2021/03/08 02:25:25;;;;;;;7.32;5.15;;;17.20;30.60;;;;;;8389095;28;20047;-55
2021/03/08 02:29:44;;;;;;;8.43;4.97;;;17.20;30.60;;;;;;8387297;28;20900;-54
2021/03/08 02:34:01;;;;;;;6.88;4.35;;;17.10;30.60;;;;;;8388974;28;20489;-55
2021/03/08 02:38:09;;;;;;;7.90;4.38;;;17.10;30.60;;;;;;8391850;28;20050;-55
2021/03/08 02:42:15;;;;;;;6.30;4.40;;;17.10;30.60;;;;;;8389221;28;20071;-55
2021/03/08 02:46:23;;;;;;;9.27;4.65;;;17.20;30.60;;;;;;8389471;28;20043;-55
2021/03/08 02:50:29;;;;;;;5.68;4.13;;;17.10;30.60;;;;;;8386420;28;20546;-55
2021/03/08 02:54:32;;;;;;;5.82;4.50;;;17.20;30.60;;;;;;8388304;28;20055;-55
2021/03/08 02:58:34;;;;;;;5.47;4.50;;;17.20;30.60;;;;;;8392601;28;20136;-55
2021/03/08 03:02:39;;;;;;;6.28;4.50;;;17.10;30.60;;;;;;8386650;28;20037;-55
2021/03/08 03:06:43;;;;;;;6.80;4.20;;;17.10;30.60;;;;;;8386850;28;20036;-54
2021/03/08 03:10:44;;;;;;;6.30;4.30;;;17.10;30.60;;;;;;8386787;28;20060;-55
2021/03/08 03:14:46;;;;;;;6.32;3.88;;;17.10;30.60;;;;;;8392049;28;20044;-55
2021/03/08 03:18:50;;;;;;;7.57;4.55;;;17.10;30.60;;;;;;8387257;28;20045;-55
2021/03/08 03:22:52;;;;;;;7.10;4.32;;;17.10;30.60;;;;;;8385556;28;20063;-55
2021/03/08 03:26:53;;;;;;;7.57;4.35;;;17.10;30.60;;;;;;8387598;28;20124;-55
2021/03/08 03:30:55;;;;;;;6.57;5.07;;;17.10;30.50;;;;;;8387231;28;20446;-55
2021/03/08 03:34:56;;;;;;;6.63;4.47;;;17.10;30.50;;;;;;8390019;28;20497;-55
2021/03/08 03:38:57;;;;;;;5.97;4.18;;;17.10;30.50;;;;;;8387264;28;20033;-54
2021/03/08 03:43:00;;;;;;;7.88;5.13;;;17.10;30.50;;;;;;8387195;28;20570;-55
2021/03/08 03:47:01;;;;;;;6.32;4.22;;;17.10;30.50;;;;;;8384845;28;20040;-55
2021/03/08 03:51:01;;;;;;;6.22;4.43;;;17.10;30.50;;;;;;8390962;28;20105;-55
2021/03/08 03:55:04;;;;;;;5.33;3.83;;;17.10;30.50;;;;;;8386509;28;20076;-55
2021/03/08 03:59:27;;;;;;;6.25;3.92;;;17.10;30.50;;;;;;8384838;28;20039;-56
2021/03/08 04:03:56;;;;;;;7.00;4.53;;;17.10;30.50;;;;;;8386030;28;20041;-55
2021/03/08 04:07:57;;;;;;;7.28;4.55;;;17.10;30.50;;;;;;8384105;28;20044;-55
2021/03/08 04:11:59;;;;;;;8.13;4.57;;;17.10;30.50;;;;;;8390558;28;20056;-55
2021/03/08 04:16:00;;;;;;;8.48;4.97;;;17.10;30.50;;;;;;8385485;28;20031;-55
2021/03/08 04:20:04;;;;;;;5.28;3.92;;;17.10;30.50;;;;;;8383978;28;20440;-55
2021/03/08 04:24:06;;;;;;;5.88;3.78;;;17.10;30.50;;;;;;8385436;28;20044;-55
2021/03/08 04:28:08;;;;;;;6.15;4.35;;;17.10;30.50;;;;;;8388054;28;20382;-55
2021/03/08 04:32:11;;;;;;;6.15;3.70;;;17.10;30.60;;;;;;8421642;28;20055;-55
2021/03/08 04:36:13;;;;;;;6.65;4.43;;;17.10;30.60;;;;;;8391730;28;20029;-55
2021/03/08 04:40:15;;;;;;;5.30;3.90;;;17.00;30.50;;;;;;8385149;28;20032;-55
2021/03/08 04:44:16;;;;;;;6.38;4.50;;;17.00;30.60;;;;;;8383827;28;20035;-55
2021/03/08 04:48:17;;;;;;;6.10;4.35;;;17.00;30.50;;;;;;8389553;28;20033;-55
2021/03/08 04:52:21;;;;;;;5.10;3.87;;;17.00;30.60;;;;;;8385155;28;20066;-55
2021/03/08 04:56:21;;;;;;;6.10;3.75;;;17.00;30.50;;;;;;8404597;28;20048;-55
2021/03/08 05:00:23;;;;;;;5.73;3.80;;;17.00;30.50;;;;;;8406547;28;20036;-54
2021/03/08 05:04:25;;;;;;;4.85;3.65;;;17.00;30.50;;;;;;8385068;28;20254;-55
2021/03/08 05:08:27;;;;;;;6.30;4.32;;;16.90;30.50;;;;;;8387436;28;20121;-55
2021/03/08 05:12:28;;;;;;;5.60;4.10;;;17.00;30.60;;;;;;8384929;28;20045;-54
2021/03/08 05:16:29;;;;;;;6.43;3.88;;;16.90;30.60;;;;;;8384619;28;20128;-55
2021/03/08 05:20:32;;;;;;;5.63;3.97;;;17.00;30.60;;;;;;8383531;28;20033;-55
2021/03/08 05:24:32;;;;;;;6.30;3.95;;;16.90;30.50;;;;;;8389250;28;20039;-55
2021/03/08 05:28:34;;;;;;;6.03;4.07;;;16.90;30.50;;;;;;8385720;28;20043;-55
2021/03/08 05:32:43;;;;;;;5.20;4.10;;;16.90;30.70;;;;;;8389183;28;20060;-55
2021/03/08 05:36:47;;;;;;;6.63;4.00;;;16.90;30.50;;;;;;8390993;28;20084;-54
2021/03/08 05:41:06;;;;;;;6.07;4.05;;;16.90;30.50;;;;;;8389026;28;20032;-55
2021/03/08 05:45:19;;;;;;;5.13;3.88;;;16.90;30.50;;;;;;8395188;28;20033;-55
2021/03/08 05:49:41;;;;;;;5.88;4.30;;;16.80;30.50;;;;;;8419653;28;20431;-54
2021/03/08 05:54:00;;;;;;;6.38;4.20;;;16.90;30.60;;;;;;8398071;28;20405;-55
2021/03/08 05:58:19;;;;;;;7.10;4.65;;;16.90;30.50;;;;;;8390553;28;20066;-55
2021/03/08 06:02:52;;;;;;;6.25;4.00;;;16.80;30.50;;;;;;8388976;28;20048;-53
2021/03/08 06:07:27;;;;;;;7.35;3.75;;;16.80;30.60;;;;;;8389523;28;20040;-55
2021/03/08 06:11:32;;;;;;;5.63;3.80;;;16.90;30.60;;;;;;8392746;28;20067;-55
2021/03/08 06:15:35;;;;;;;4.95;3.90;;;16.80;30.60;;;;;;8389579;28;20045;-55
2021/03/08 06:19:38;;;;;;;6.57;4.13;;;16.80;30.50;;;;;;8389376;28;20043;-54
2021/03/08 06:23:41;;;;;;;6.72;3.95;;;16.80;30.50;;;;;;8388199;28;20040;-54
2021/03/08 06:27:43;;;;;;;5.90;3.90;;;16.80;31.00;;;;;;8389209;28;22046;-55
2021/03/08 06:31:44;;;;;;;5.20;3.92;;;16.80;30.40;;;;;;8392084;28;20090;-54
2021/03/08 06:35:44;;;;;;;5.37;3.63;;;16.90;30.40;;;;;;8389245;28;20029;-55
2021/03/08 06:39:47;;;;;;;5.57;3.97;;;16.90;30.30;;;;;;8404301;28;20114;-55
2021/03/08 06:43:48;;;;;;;5.97;4.40;;;17.00;30.20;;;;;;8409526;28;20028;-54
2021/03/08 06:47:48;;;;;;;5.33;3.93;;;16.90;30.20;;;;;;8393334;28;20029;-54
2021/03/08 06:52:11;;;;;;;5.67;3.93;;;16.90;30.20;;;;;;8388217;28;20110;-55
2021/03/08 06:56:16;;;;;;;5.55;4.07;;;16.80;30.20;;;;;;8387082;28;20052;-55
2021/03/08 07:00:17;;;;;;;6.47;4.07;;;16.80;30.30;;;;;;8387932;28;20039;-55
2021/03/08 07:04:27;;;;;;;4.40;3.30;;;16.80;30.30;;;;;;8388661;28;20387;-54
2021/03/08 07:08:28;;;;;;;6.78;3.80;;;16.80;30.40;;;;;;8390738;28;20113;-54
2021/03/08 07:12:28;;;;;;;5.50;3.90;;;16.80;30.40;;;;;;8387797;28;20049;-54
2021/03/08 07:16:38;;;;;;;7.83;4.00;;;16.80;30.40;;;;;;8387581;28;20517;-55
2021/03/08 07:20:38;;;;;;;5.15;3.70;;;16.80;30.50;;;;;;8386711;28;20036;-53
2021/03/08 07:24:56;;;;;;;6.87;4.00;;;16.80;30.40;;;;;;8388386;28;20041;-54
2021/03/08 07:29:12;;;;;;;5.03;4.10;;;16.80;30.40;;;;;;8389937;28;20052;-55
2021/03/08 07:33:14;;;;;;;5.75;4.30;;;16.80;30.50;;;;;;8387346;28;20036;-55
2021/03/08 07:37:14;;;;;;;5.78;3.60;;;16.80;30.40;;;;;;8404913;28;20032;-55
2021/03/08 07:41:20;;;;;;;5.37;3.70;;;16.80;30.40;;;;;;8409210;28;20579;-55
2021/03/08 07:45:36;;;;;;;5.50;4.07;;;16.80;30.40;;;;;;8391247;28;20043;-55
2021/03/08 07:49:37;;;;;;;6.05;4.32;;;16.80;30.40;;;;;;8422793;28;20052;-52
2021/03/08 07:53:38;;;;;;;6.13;4.03;;;16.80;30.40;;;;;;8394406;28;20028;-55
2021/03/08 07:57:39;;;;;;;7.00;4.10;;;16.70;30.40;;;;;;8401175;28;20078;-55
2021/03/08 08:01:39;;;;;;;6.53;3.57;;;16.70;30.30;;;;;;8417206;28;20032;-55
2021/03/08 08:05:40;;;;;;;6.70;4.13;;;16.80;30.40;;;;;;8424055;28;20028;-56
2021/03/08 08:09:45;;;;;;;4.63;3.83;;;16.80;30.40;;;;;;8390117;28;20485;-55
2021/03/08 08:14:05;;;;;;;5.90;3.67;;;16.80;30.40;;;;;;8384207;28;20402;-56
2021/03/08 08:18:07;;;;;;;7.00;4.72;;;16.80;30.40;;;;;;8385745;28;20040;-55
2021/03/08 08:22:15;;;;;;;5.85;4.00;;;16.80;30.40;;;;;;8385300;28;20040;-55
2021/03/08 08:26:18;;;;;;;4.97;3.53;;;16.80;30.30;;;;;;8388817;28;20559;-56
2021/03/08 08:30:23;;;;;;;6.40;3.78;;;16.90;30.40;;;;;;8385357;28;20044;-55
2021/03/08 08:34:47;;;;;;;6.13;4.03;;;16.90;30.30;;;;;;8386055;28;20627;-55
2021/03/08 08:38:53;;;;;;;8.18;4.55;;;16.90;30.30;;;;;;8383777;28;20040;-55
2021/03/08 08:43:14;;;;;;;6.38;4.10;;;17.00;30.30;;;;;;8385290;28;20082;-55
2021/03/08 08:47:23;;;;;;;6.07;4.07;;;17.10;30.30;;;;;;8387906;28;20052;-55
2021/03/08 08:51:53;;;;;;;5.35;3.95;;;17.10;30.30;;;;;;8385069;28;20053;-56
2021/03/08 08:55:54;;;;;;;5.22;3.90;;;17.10;30.30;;;;;;8407052;28;20034;-55
2021/03/08 09:00:21;;;;;;;5.70;4.77;;;17.00;30.20;;;;;;8404409;28;20036;-55
2021/03/08 09:04:33;;;;;;;5.57;4.18;;;17.10;30.30;;;;;;8387412;28;20506;-55
2021/03/08 09:08:34;;;;;;;6.47;4.28;;;17.10;30.30;;;;;;8394540;28;20041;-55
2021/03/08 09:12:37;;;;;;;4.80;4.00;;;17.10;30.30;;;;;;8392032;28;20044;-55
2021/03/08 09:16:41;;;;;;;6.93;4.18;;;17.10;30.30;;;;;;8389860;28;20037;-52
2021/03/08 09:20:43;;;;;;;6.53;4.57;;;17.10;30.30;;;;;;8391820;28;20086;-54
2021/03/08 09:24:44;;;;;;;6.72;4.65;;;17.20;30.30;;;;;;8391793;28;20408;-54
2021/03/08 09:28:48;;;;;;;7.70;4.63;;;17.20;30.20;;;;;;8393861;28;20037;-55
2021/03/08 09:33:04;;;;;;;5.78;4.30;;;17.20;30.20;;;;;;8385295;28;20036;-55
2021/03/08 09:37:06;;;;;;;6.40;4.15;;;17.20;30.10;;;;;;8364934;28;20136;-55
2021/03/08 09:41:06;;;;;;;5.63;4.45;;;17.20;30.00;;;;;;8359624;28;20505;-55
2021/03/08 09:45:20;;;;;;;5.57;4.20;;;17.20;30.00;;;;;;8360761;28;20029;-55
2021/03/08 09:49:21;;;;;;;6.75;4.15;;;17.20;30.00;;;;;;8367838;28;20083;-55
2021/03/08 09:53:21;;;;;;;6.07;3.93;;;17.20;30.00;;;;;;8365979;28;20382;-55
2021/03/08 09:57:35;;;;;;;5.53;3.87;;;17.20;30.00;;;;;;8373436;28;20036;-55
2021/03/08 10:01:36;;;;;;;4.60;3.90;;;17.20;30.00;;;;;;8370700;28;20149;-55
2021/03/08 10:05:50;;;;;;;6.78;4.18;;;17.20;30.10;;;;;;8391507;28;20025;-55
2021/03/08 10:10:26;;;;;;;6.60;3.90;;;17.30;30.10;;;;;;8377399;28;20071;-55
2021/03/08 10:14:28;;;;;;;5.53;4.05;;;17.30;30.00;;;;;;8328485;28;20041;-55
2021/03/08 10:18:31;;;;;;;4.50;3.78;;;17.30;30.00;;;;;;8365592;28;20080;-54
2021/03/08 10:22:37;;;;;;;5.22;3.92;;;17.30;30.00;;;;;;8368251;27;20045;-54
2021/03/08 10:26:44;;;;;;;5.45;3.85;;;17.30;30.00;;;;;;8365285;28;20460;-55
2021/03/08 10:30:45;;;;;;;5.60;4.00;;;17.30;30.00;;;;;;8366878;28;20049;-54
2021/03/08 10:34:46;;;;;;;5.20;3.95;;;17.30;30.00;;;;;;8363385;28;20565;-56
2021/03/08 10:39:01;;;;;;;5.30;3.87;;;17.30;30.00;;;;;;8368566;28;20078;-56
2021/03/08 10:43:02;;;;;;;5.25;3.58;;;17.30;29.90;;;;;;8371034;28;20695;-54
2021/03/08 10:47:14;;;;;;;5.88;3.70;;;17.30;30.00;;;;;;8383544;28;20120;-55
2021/03/08 10:51:19;;;;;;;6.47;4.07;;;17.30;30.00;;;;;;8366444;28;20052;-56
2021/03/08 10:55:29;;;;;;;6.13;3.95;;;17.30;30.00;;;;;;8359734;28;20033;-54
2021/03/08 10:59:30;;;;;;;5.13;3.70;;;17.30;30.00;;;;;;8363935;27;20048;-55
2021/03/08 11:03:41;;;;;;;5.13;3.43;;;17.30;29.90;;;;;;8358711;28;20401;-54
2021/03/08 11:07:41;;;;;;;5.75;3.58;;;17.30;29.90;;;;;;8390740;28;20041;-54
2021/03/08 11:11:45;;;;;;;4.80;3.30;;;17.30;30.30;;;;;;8388062;28;20532;-54
2021/03/08 11:15:46;;;;;;;5.50;3.60;;;17.30;29.80;;;;;;8388173;28;20068;-55
2021/03/08 11:19:46;;;;;;;4.63;3.60;;;17.30;29.80;;;;;;8386111;28;20032;-55
2021/03/08 11:23:47;;;;;;;4.33;3.17;;;17.30;29.80;;;;;;8392305;28;20127;-55
2021/03/08 11:27:47;;;;;;;5.77;3.60;;;17.30;29.80;;;;;;8386870;28;20039;-55
2021/03/08 11:31:53;;;;;;;5.33;3.63;;;17.30;29.80;;;;;;8385529;28;20051;-55
2021/03/08 11:35:55;;;;;;;3.72;3.03;;;17.30;29.80;;;;;;8387387;28;20041;-55
2021/03/08 11:39:57;;;;;;;5.13;3.30;;;17.40;29.90;;;;;;8386621;28;20027;-55
2021/03/08 11:43:59;;;;;;;7.18;4.05;;;17.40;29.90;;;;;;8389502;28;20094;-55
2021/03/08 11:48:01;;;;;;;4.43;3.50;;;17.40;29.90;;;;;;8387307;28;20045;-55
2021/03/08 11:52:03;;;;;;;4.50;3.15;;;17.40;29.90;;;;;;8386478;28;20052;-55
2021/03/08 11:56:04;;;;;;;4.82;3.00;;;17.40;29.80;;;;;;8384819;28;20036;-55
2021/03/08 12:00:06;;;;;;;4.32;3.40;;;17.40;29.80;;;;;;8390662;28;20047;-55
2021/03/08 12:04:07;;;;;;;6.25;3.60;;;17.40;29.80;;;;;;8386307;28;20043;-55
2021/03/08 12:08:07;;;;;;;3.77;2.90;;;17.50;29.90;;;;;;8384517;28;20472;-55
2021/03/08 12:12:08;;;;;;;5.60;3.47;;;17.40;29.90;;;;;;8386849;28;20131;-55
2021/03/08 12:16:09;;;;;;;6.13;3.53;;;17.40;29.90;;;;;;8385771;28;20490;-56
2021/03/08 12:20:10;;;;;;;4.00;3.40;;;17.50;29.90;;;;;;8388683;28;20035;-56
2021/03/08 12:24:12;;;;;;;4.68;3.20;;;17.50;29.90;;;;;;8385884;28;20121;-55
2021/03/08 12:28:12;;;;;;;6.07;3.33;;;17.50;29.90;;;;;;8385725;28;20446;-56
2021/03/08 12:32:13;;;;;;;5.43;3.27;;;17.50;29.90;;;;;;8384124;28;20044;-56
2021/03/08 12:36:14;;;;;;;4.83;3.57;;;17.50;29.90;;;;;;8390298;28;20070;-55
2021/03/08 12:40:15;;;;;;;4.82;3.47;;;17.50;29.80;;;;;;8385317;28;20048;-56
2021/03/08 12:44:15;;;;;;;4.30;3.47;;;17.50;29.90;;;;;;8383372;28;20032;-56
2021/03/08 12:48:16;;;;;;;4.77;3.10;;;17.50;29.80;;;;;;8385025;28;20551;-56
2021/03/08 12:52:16;;;;;;;4.80;3.50;;;17.50;29.90;;;;;;8387212;28;20090;-56
2021/03/08 12:56:17;;;;;;;4.23;3.37;;;17.50;29.80;;;;;;8385814;28;20505;-56
2021/03/08 13:00:18;;;;;;;4.87;3.73;;;17.50;29.90;;;;;;8385162;28;20386;-56
2021/03/08 13:04:19;;;;;;;4.28;3.40;;;17.50;29.90;;;;;;8385032;28;20128;-56
2021/03/08 13:08:19;;;;;;;4.30;3.20;;;17.50;29.80;;;;;;8383556;28;20048;-56
2021/03/08 13:12:20;;;;;;;3.83;2.97;;;17.60;29.80;;;;;;8389406;28;20048;-56
2021/03/08 13:16:20;;;;;;;4.27;3.07;;;17.50;29.80;;;;;;8384833;28;20166;-56
2021/03/08 13:20:21;;;;;;;3.60;2.93;;;17.50;29.80;;;;;;8382977;28;20033;-56
2021/03/08 13:24:21;;;;;;;4.73;3.47;;;17.50;29.80;;;;;;8385066;28;20037;-56
2021/03/08 13:28:22;;;;;;;4.00;3.30;;;17.60;29.90;;;;;;8389189;28;20037;-56
2021/03/08 13:32:23;;;;;;;4.90;3.43;;;17.60;29.90;;;;;;8382894;28;20075;-56
2021/03/08 13:36:23;;;;;;;3.87;3.20;;;17.60;29.90;;;;;;8385206;28;20067;-56
2021/03/08 13:40:24;;;;;;;3.67;3.27;;;17.60;29.80;;;;;;8371553;28;20037;-53
2021/03/08 13:44:24;;;;;;;3.83;3.03;;;17.60;29.80;;;;;;8382053;28;20512;-56
2021/03/08 13:48:25;;;;;;;3.00;2.70;;;17.60;29.80;;;;;;8360743;28;20045;-56
2021/03/08 13:52:25;;;;;;;4.33;3.17;;;17.60;29.80;;;;;;8380673;28;20110;-56
2021/03/08 13:56:27;;;;;;;3.87;3.00;;;17.60;29.70;;;;;;8378864;28;20045;-55
2021/03/08 14:00:27;;;;;;;5.00;3.22;;;17.60;29.70;;;;;;8386622;27;20626;-56
2021/03/08 14:04:28;;;;;;;4.53;3.33;;;17.60;29.80;;;;;;8400226;28;20037;-53
2021/03/08 14:08:28;;;;;;;3.60;2.97;;;17.60;29.80;;;;;;8387275;28;20055;-53
2021/03/08 14:12:29;;;;;;;3.87;2.93;;;17.60;29.80;;;;;;8389750;28;20041;-57
2021/03/08 14:16:29;;;;;;;4.33;3.17;;;17.60;29.80;;;;;;8367195;28;20025;-55
2021/03/08 14:20:30;;;;;;;5.57;3.43;;;17.60;29.80;;;;;;8391730;28;20044;-55
2021/03/08 14:24:31;;;;;;;3.53;2.70;;;17.60;29.80;;;;;;8376626;28;20071;-56
2021/03/08 14:28:31;;;;;;;3.60;3.00;;;17.60;29.80;;;;;;8389017;28;20028;-56
2021/03/08 14:32:32;;;;;;;4.43;2.90;;;17.60;29.70;;;;;;8376537;28;20052;-56
2021/03/08 14:36:32;;;;;;;4.40;3.30;;;17.60;29.70;;;;;;8389280;28;20059;-56
2021/03/08 14:40:33;;;;;;;4.50;3.03;;;17.70;29.70;;;;;;8393158;28;20075;-56
2021/03/08 14:44:33;;;;;;;3.63;2.50;;;17.60;29.70;;;;;;8387229;28;20062;-56
2021/03/08 14:48:34;;;;;;;4.77;2.87;;;17.60;29.70;;;;;;8403997;28;20028;-56
2021/03/08 14:52:35;;;;;;;3.17;2.60;;;17.60;29.70;;;;;;8415857;28;20565;-56
2021/03/08 14:56:35;;;;;;;3.93;2.40;;;17.60;29.70;;;;;;8390970;28;20037;-55
2021/03/08 15:00:36;;;;;;;3.40;3.00;;;17.60;29.70;;;;;;8387481;28;20044;-56
2021/03/08 15:04:37;;;;;;;3.30;2.40;;;17.60;29.70;;;;;;8381124;28;20025;-56
2021/03/08 15:08:37;;;;;;;4.57;3.00;;;17.70;29.70;;;;;;8362855;28;20037;-56
2021/03/08 15:12:38;;;;;;;3.50;2.60;;;17.70;29.70;;;;;;8392487;28;20512;-56
2021/03/08 15:16:39;;;;;;;3.63;2.50;;;17.60;29.60;;;;;;8376590;28;20040;-54
2021/03/08 15:20:39;;;;;;;4.23;2.53;;;17.70;29.70;;;;;;8387906;28;20413;-56
2021/03/08 15:24:41;;;;;;;3.53;3.00;;;17.60;29.60;;;;;;8387002;28;20052;-56
2021/03/08 15:28:41;;;;;;;3.33;2.25;;;17.70;29.70;;;;;;8374814;28;20040;-55
2021/03/08 15:32:42;;;;;;;4.23;2.80;;;17.60;29.70;;;;;;8413841;28;20048;-56
2021/03/08 15:36:42;;;;;;;3.87;2.57;;;17.60;29.70;;;;;;8386828;28;20037;-56
2021/03/08 15:40:43;;;;;;;3.97;2.63;;;17.70;29.70;;;;;;8393431;28;20039;-55
2021/03/08 15:44:43;;;;;;;4.13;2.70;;;17.70;29.60;;;;;;8410602;28;20038;-55
2021/03/08 15:48:44;;;;;;;2.73;2.30;;;17.60;29.60;;;;;;8391039;28;20048;-55
2021/03/08 15:52:45;;;;;;;4.40;3.00;;;17.70;29.70;;;;;;8384738;28;20064;-54
2021/03/08 15:56:45;;;;;;;3.33;2.87;;;17.60;29.70;;;;;;8369239;28;20406;-55
2021/03/08 16:00:46;;;;;;;3.57;2.50;;;17.70;29.70;;;;;;8363963;28;20044;-54
2021/03/08 16:04:47;;;;;;;4.47;2.57;;;17.60;29.60;;;;;;8385398;28;20431;-55
2021/03/08 16:08:48;;;;;;;3.20;2.38;;;17.60;29.60;;;;;;8357636;28;20132;-55
2021/03/08 16:12:48;;;;;;;3.10;2.37;;;17.70;29.70;;;;;;8368637;28;20048;-55
2021/03/08 16:16:49;;;;;;;3.83;2.70;;;17.70;29.70;;;;;;8365417;28;20515;-55
2021/03/08 16:20:50;;;;;;;4.90;3.63;;;17.60;29.70;;;;;;8385925;28;20036;-55
2021/03/08 16:24:50;;;;;;;3.08;2.75;;;17.60;29.60;;;;;;8390118;28;20036;-55
2021/03/08 16:28:51;;;;;;;4.07;2.53;;;17.60;29.60;;;;;;8407969;28;20044;-55
2021/03/08 16:32:51;;;;;;;2.90;2.60;;;17.60;29.60;;;;;;8370226;28;20047;-55
2021/03/08 16:36:53;;;;;;;3.33;2.20;;;17.60;29.70;;;;;;8386174;28;20039;-55
2021/03/08 16:40:54;;;;;;;3.53;2.63;;;17.60;29.60;;;;;;8388103;28;20071;-55
2021/03/08 16:44:55;;;;;;;3.97;2.40;;;17.60;29.60;;;;;;8385071;28;20543;-55
2021/03/08 16:48:55;;;;;;;4.15;2.60;;;17.60;29.60;;;;;;8380227;28;20047;-55
2021/03/08 16:52:56;;;;;;;3.40;2.47;;;17.60;29.70;;;;;;8376779;28;20075;-54
2021/03/08 16:56:56;;;;;;;3.70;2.27;;;17.60;29.60;;;;;;8382014;28;20025;-53
2021/03/08 17:00:57;;;;;;;3.07;2.40;;;17.60;29.60;;;;;;8423299;28;20040;-53
2021/03/08 17:04:57;;;;;;;4.33;3.00;;;17.60;29.60;;;;;;8372419;28;20041;-54
2021/03/08 17:08:58;;;;;;;4.00;2.70;;;17.60;29.60;;;;;;8367037;28;20033;-53
2021/03/08 17:12:58;;;;;;;3.33;2.43;;;17.60;29.70;;;;;;8385032;28;20136;-53
2021/03/08 17:16:59;;;;;;;3.03;2.60;;;17.60;29.60;;;;;;8387918;28;20371;-53
2021/03/08 17:21:00;;;;;;;5.13;2.67;;;17.60;29.60;;;;;;8374208;28;20033;-56
2021/03/08 17:25:00;;;;;;;5.27;2.67;;;17.50;29.60;;;;;;8390978;28;20040;-54
2021/03/08 17:29:01;;;;;;;4.30;2.67;;;17.60;29.60;;;;;;8397206;28;20044;-56
2021/03/08 17:33:02;;;;;;;3.33;2.30;;;17.50;29.50;;;;;;8363405;27;20505;-55
2021/03/08 17:37:03;;;;;;;3.13;2.50;;;17.60;29.80;;;;;;8360181;28;20143;-56
2021/03/08 17:41:04;;;;;;;4.47;3.03;;;17.70;29.90;;;;;;8358666;28;20498;-55
2021/03/08 17:45:05;;;;;;;3.70;2.67;;;17.80;29.90;;;;;;8359999;28;20048;-57
2021/03/08 17:49:05;;;;;;;6.38;2.58;;;17.90;29.90;;;;;;8359197;28;20035;-54
2021/03/08 17:53:06;;;;;;;4.07;2.83;;;17.90;29.90;;;;;;8358919;28;20424;-58
2021/03/08 17:57:08;;;;;;;4.70;2.33;;;18.00;29.90;;;;;;8361208;28;20040;-59
2021/03/08 18:01:08;;;;;;;4.38;2.70;;;18.10;29.90;;;;;;8359150;28;20449;-58
2021/03/08 18:05:12;;;;;;;4.43;2.70;;;18.20;29.90;;;;;;8355961;28;20501;-58
2021/03/08 18:09:14;;;;;;;5.75;3.22;;;18.30;29.90;;;;;;8364658;28;20164;-60
2021/03/08 18:13:14;;;;;;;4.65;3.00;;;18.40;30.00;;;;;;8381633;28;20033;-58
2021/03/08 18:17:15;;;;;;;3.90;3.03;;;18.40;30.00;;;;;;8367094;28;20051;-57
2021/03/08 18:21:16;;;;;;;4.80;2.57;;;18.50;30.00;;;;;;8359714;28;20037;-58
2021/03/08 18:25:16;;;;;;;6.82;2.80;;;18.50;29.90;;;;;;8355780;28;20060;-57
2021/03/08 18:29:17;;;;;;;3.50;2.27;;;18.60;30.00;;;;;;8357637;28;20173;-59
2021/03/08 18:33:17;;;;;;;7.20;2.73;;;18.60;29.90;;;;;;8355938;28;20125;-58
2021/03/08 18:37:18;;;;;;;3.57;2.87;;;18.70;29.90;;;;;;8368303;28;20402;-57
2021/03/08 18:41:19;;;;;;;6.23;2.70;;;18.80;29.90;;;;;;8383199;28;20041;-57
2021/03/08 18:45:19;;;;;;;4.80;2.43;;;18.90;29.90;;;;;;8358119;28;20152;-59
2021/03/08 18:49:20;;;;;;;4.53;2.77;;;18.90;29.90;;;;;;8357661;28;20036;-55
2021/03/08 18:53:20;;;;;;;3.37;2.60;;;19.00;29.90;;;;;;8356340;28;20545;-57
2021/03/08 18:57:21;;;;;;;4.83;2.77;;;19.00;29.80;;;;;;8357687;28;20121;-57
2021/03/08 19:01:21;;;;;;;4.23;2.90;;;19.10;29.80;;;;;;8357795;28;20106;-58
2021/03/08 19:05:22;;;;;;;5.47;2.70;;;19.10;29.80;;;;;;8353676;28;20047;-57
2021/03/08 19:09:22;;;;;;;4.47;2.37;;;19.20;29.80;;;;;;8358981;28;20179;-59
2021/03/08 19:13:23;;;;;;;4.60;2.50;;;19.20;29.70;;;;;;8358023;28;20056;-58
2021/03/08 19:17:23;;;;;;;4.93;2.90;;;19.30;29.70;;;;;;8353216;28;20106;-59
2021/03/08 19:21:24;;;;;;;4.53;2.60;;;19.40;29.80;;;;;;8359656;28;20040;-58
2021/03/08 19:25:25;;;;;;;4.60;2.70;;;19.40;29.70;;;;;;8359591;28;20176;-58
2021/03/08 19:29:25;;;;;;;3.57;2.60;;;19.50;29.60;;;;;;8359652;27;20127;-59
2021/03/08 19:33:26;;;;;;;4.57;3.30;;;19.50;29.60;;;;;;8368544;28;20059;-57
2021/03/08 19:37:27;;;;;;;3.33;2.70;;;19.50;29.60;;;;;;8371602;28;20547;-57
2021/03/08 19:41:28;;;;;;;8.80;3.13;;;19.60;29.60;;;;;;8364661;28;20035;-58
2021/03/08 19:45:29;;;;;;;6.15;3.78;;;19.60;29.50;;;;;;8392301;28;20044;-59
2021/03/08 19:49:29;;;;;;;5.60;4.03;;;19.70;29.60;;;;;;8386323;28;20483;-57
2021/03/08 19:53:30;;;;;;;4.37;2.70;;;19.70;29.00;;;;;;8368795;28;20071;-57
2021/03/08 19:57:31;;;;;;;4.77;2.73;;;19.60;29.70;;;;;;8392039;28;20029;-57
2021/03/08 20:01:32;;;;;;;6.47;2.60;;;19.60;29.70;;;;;;8391554;28;20037;-57
2021/03/08 20:05:32;;;;;;;4.37;2.63;;;19.60;29.60;;;;;;8402981;28;20453;-59
2021/03/08 20:09:33;;;;;;;3.97;2.70;;;19.60;29.50;;;;;;8392944;28;20037;-59
2021/03/08 20:13:40;;;;;;;3.77;2.50;;;19.50;29.50;;;;;;8394982;28;20111;-58
2021/03/08 20:17:41;;;;;;;5.65;2.70;;;19.50;29.50;;;;;;8389021;28;20131;-58
2021/03/08 20:21:42;;;;;;;4.22;2.63;;;19.40;29.50;;;;;;8390377;28;20138;-58
2021/03/08 20:25:42;;;;;;;4.40;2.97;;;19.40;29.50;;;;;;8395627;28;20040;-58
2021/03/08 20:29:43;;;;;;;3.83;2.50;;;19.30;29.50;;;;;;8427952;28;20086;-58
2021/03/08 20:33:43;;;;;;;5.40;2.50;;;19.30;29.60;;;;;;8391916;28;20029;-58
2021/03/08 20:37:44;;;;;;;5.43;2.97;;;19.20;29.50;;;;;;8388133;28;20039;-58
2021/03/08 20:41:45;;;;;;;3.97;2.60;;;19.20;29.50;;;;;;8389696;28;20029;-58
2021/03/08 20:45:45;;;;;;;3.40;2.93;;;19.20;29.60;;;;;;8389689;28;20032;-60
2021/03/08 20:49:46;;;;;;;3.40;2.50;;;19.10;29.60;;;;;;8392579;28;20037;-57
2021/03/08 20:53:46;;;;;;;3.90;2.93;;;19.10;29.60;;;;;;8389737;28;20039;-58
2021/03/08 20:57:47;;;;;;;5.23;2.57;;;19.00;29.60;;;;;;8389552;28;20489;-57
2021/03/08 21:01:48;;;;;;;3.38;2.65;;;19.00;29.60;;;;;;8386684;28;20056;-58
2021/03/08 21:05:49;;;;;;;5.93;2.63;;;18.90;29.50;;;;;;8394053;28;20047;-58
2021/03/08 21:09:49;;;;;;;3.17;2.70;;;18.90;29.60;;;;;;8370373;28;547429;-58